Time;durP1;ratioP1;P1;durP2;ratioP2;P2;SDS_P1;SDS_P2;PMS_P1;PMS_P2;Temp;Humidity;BMP_temperature;BMP_pressure;BME280_temperature;BME280_humidity;BME280_pressure;Samples;Min_cycle;Max_cycle;Signal;HPM_P1;HPM_P2
2023/07/22 00:00:16;;;;;;;11.85;3.97;;;666.40;2432.00;;;;;;5109763;28;20383;-79
2023/07/22 00:02:42;;;;;;;9.00;4.22;;;666.50;2432.00;;;;;;5094342;28;20025;-79
2023/07/22 00:05:12;;;;;;;8.32;4.00;;;666.30;2432.00;;;;;;5110020;28;20024;-80
2023/07/22 00:07:40;;;;;;;9.07;3.70;;;666.20;2432.00;;;;;;5095899;28;20051;-77
2023/07/22 00:10:10;;;;;;;9.80;3.13;;;666.20;2432.00;;;;;;5124062;28;20036;-80
2023/07/22 00:12:36;;;;;;;10.00;3.35;;;666.20;2432.00;;;;;;5099248;28;20024;-78
2023/07/22 00:15:02;;;;;;;12.25;3.58;;;666.20;2432.00;;;;;;5116498;28;20388;-78
2023/07/22 00:17:29;;;;;;;6.45;2.95;;;666.20;2432.00;;;;;;5115102;28;20082;-78
2023/07/22 00:19:55;;;;;;;7.55;3.03;;;666.20;2432.00;;;;;;5114662;28;20490;-79
2023/07/22 00:22:21;;;;;;;7.75;3.33;;;666.20;2432.00;;;;;;5094361;28;20032;-79
2023/07/22 00:24:47;;;;;;;12.20;3.13;;;666.20;2432.00;;;;;;5111981;28;20028;-81
2023/07/22 00:27:13;;;;;;;7.53;3.17;;;665.90;2432.00;;;;;;5097505;28;20027;-80
2023/07/22 00:29:39;;;;;;;8.45;3.20;;;665.90;2432.00;;;;;;5113535;28;20375;-80
2023/07/22 00:32:08;;;;;;;7.53;3.42;;;665.90;2432.00;;;;;;5113477;28;20086;-81
2023/07/22 00:34:35;;;;;;;9.68;2.90;;;665.80;2432.00;;;;;;5113259;28;20028;-81
2023/07/22 00:37:01;;;;;;;10.10;3.75;;;;;;;;;;5113487;28;20053;-82
2023/07/22 00:39:26;;;;;;;10.45;3.50;;;665.70;2432.00;;;;;;5113472;28;20020;-81
2023/07/22 00:41:52;;;;;;;7.75;3.35;;;665.60;2432.00;;;;;;5097418;28;20353;-81
2023/07/22 00:44:19;;;;;;;11.45;3.22;;;665.60;2432.00;;;;;;5113287;28;20145;-81
2023/07/22 00:46:45;;;;;;;11.52;3.50;;;640.80;2432.00;;;;;;5113331;28;20067;-81
2023/07/22 00:49:12;;;;;;;6.18;3.95;;;;;;;;;;5112957;28;20460;-81
2023/07/22 00:51:38;;;;;;;8.65;3.88;;;;;;;;;;5113075;28;20024;-81
2023/07/22 00:54:05;;;;;;;10.05;3.30;;;;;;;;;;5112750;28;20036;-82
2023/07/22 00:56:34;;;;;;;7.75;2.83;;;;;;;;;;5112724;28;20065;-82
2023/07/22 00:59:00;;;;;;;7.45;3.95;;;;;;;;;;5112958;28;20027;-82
2023/07/22 01:01:26;;;;;;;9.52;3.97;;;;;;;;;;5112887;28;20467;-81
2023/07/22 01:03:52;;;;;;;8.45;3.17;;;;;;;;;;5112682;28;20093;-82
2023/07/22 01:06:19;;;;;;;6.68;3.45;;;;;;;;;;5112832;28;20464;-81
2023/07/22 01:08:46;;;;;;;10.32;3.35;;;;;;;;;;5112732;28;20020;-81
2023/07/22 01:11:12;;;;;;;6.38;2.97;;;640.90;2432.00;;;;;;5112257;28;20388;-82
2023/07/22 01:13:39;;;;;;;10.25;3.80;;;;;;;;;;5112738;28;20078;-82
2023/07/22 01:16:06;;;;;;;13.48;3.67;;;;;;;;;;5112361;28;20115;-81
2023/07/22 01:18:33;;;;;;;9.27;2.95;;;;;;;;;;5112800;28;20120;-82
2023/07/22 01:20:59;;;;;;;9.18;3.10;;;;;;;;;;5112569;28;20027;-82
2023/07/22 01:23:25;;;;;;;8.38;3.33;;;;;;;;;;5096785;28;20492;-82
2023/07/22 01:25:52;;;;;;;7.28;3.10;;;;;;;;;;5112494;28;20020;-83
2023/07/22 01:28:18;;;;;;;7.07;3.45;;;;;;;;;;5113241;28;20398;-84
2023/07/22 01:30:45;;;;;;;8.85;3.72;;;;;;;;;;5112120;28;20024;-82
2023/07/22 01:33:11;;;;;;;7.03;2.90;;;;;;;;;;5112126;28;20495;-80
2023/07/22 01:35:37;;;;;;;8.10;4.10;;;;;;;;;;5112254;28;20035;-80
2023/07/22 01:38:03;;;;;;;9.13;3.60;;;;;;;;;;5112066;28;20478;-81
2023/07/22 01:40:31;;;;;;;8.20;3.72;;;;;;;;;;5112101;28;20020;-81
2023/07/22 01:42:57;;;;;;;8.05;3.67;;;;;;;;;;5111794;28;20056;-79
2023/07/22 01:45:23;;;;;;;7.18;3.90;;;;;;;;;;5112126;28;20450;-81
2023/07/22 01:47:49;;;;;;;7.47;3.40;;;;;;;;;;5111999;28;20069;-80
2023/07/22 01:50:15;;;;;;;8.30;3.53;;;;;;;;;;5112651;28;20024;-81
2023/07/22 01:52:41;;;;;;;10.85;3.83;;;;;;;;;;5111560;28;20397;-81
2023/07/22 01:55:10;;;;;;;13.00;3.80;;;;;;;;;;5111844;28;20032;-81
2023/07/22 01:57:36;;;;;;;9.18;4.20;;;;;;;;;;5111817;28;20020;-81
2023/07/22 02:00:05;;;;;;;10.35;3.92;;;;;;;;;;5111543;28;20023;-82
2023/07/22 02:02:31;;;;;;;11.63;3.95;;;;;;;;;;5112406;28;20024;-81
2023/07/22 02:04:57;;;;;;;9.48;3.25;;;;;;;;;;5111425;28;20039;-81
2023/07/22 02:07:26;;;;;;;10.05;4.88;;;;;;;;;;5095705;28;20020;-82
2023/07/22 02:09:52;;;;;;;10.88;4.90;;;;;;;;;;5111295;28;20047;-82
2023/07/22 02:12:18;;;;;;;11.48;4.25;;;;;;;;;;5111237;28;20032;-82
2023/07/22 02:14:44;;;;;;;9.40;4.28;;;640.10;2432.00;;;;;;5111526;28;20024;-82
2023/07/22 02:17:10;;;;;;;10.98;3.67;;;640.00;2432.00;;;;;;5111529;28;20107;-82
2023/07/22 02:19:36;;;;;;;10.88;3.45;;;640.00;2432.00;;;;;;5111048;28;20028;-83
2023/07/22 02:22:04;;;;;;;8.85;4.20;;;615.30;2432.00;;;;;;5111463;28;20452;-82
2023/07/22 02:24:30;;;;;;;11.18;3.70;;;615.30;2432.00;;;;;;5111261;28;20028;-83
2023/07/22 02:26:56;;;;;;;6.13;3.33;;;;;;;;;;5111060;28;20028;-82
2023/07/22 02:29:23;;;;;;;10.90;3.85;;;;;;;;;;5111451;28;20080;-82
2023/07/22 02:31:49;;;;;;;8.77;4.22;;;;;;;;;;5111103;28;20021;-82
2023/07/22 02:34:16;;;;;;;8.20;3.70;;;615.20;2432.00;;;;;;5110734;28;20031;-82
2023/07/22 02:36:42;;;;;;;6.63;3.58;;;615.00;2432.00;;;;;;5111138;28;20336;-82
2023/07/22 02:39:09;;;;;;;10.38;3.78;;;615.00;2432.00;;;;;;5095118;28;20162;-82
2023/07/22 02:41:37;;;;;;;7.35;3.20;;;615.10;2432.00;;;;;;5110635;28;20062;-82
2023/07/22 02:44:05;;;;;;;7.57;3.47;;;614.90;2432.00;;;;;;5111140;28;20031;-82
2023/07/22 02:46:31;;;;;;;8.05;4.28;;;615.00;2432.00;;;;;;5110853;28;20035;-82
2023/07/22 02:49:01;;;;;;;11.23;4.20;;;614.90;2432.00;;;;;;5109642;28;20517;-82
2023/07/22 02:51:27;;;;;;;9.65;4.20;;;614.90;2432.00;;;;;;5110789;28;20111;-82
2023/07/22 02:53:52;;;;;;;11.88;3.58;;;614.90;2432.00;;;;;;5110753;28;20115;-82
2023/07/22 02:56:18;;;;;;;11.85;4.80;;;615.00;2432.00;;;;;;5089146;28;20050;-82
2023/07/22 02:58:44;;;;;;;11.23;4.35;;;614.70;2432.00;;;;;;5077271;28;20081;-82
2023/07/22 03:01:11;;;;;;;10.77;4.13;;;;;;;;;;5118995;27;20016;-82
2023/07/22 03:03:39;;;;;;;11.13;4.78;;;;;;;;;;5133161;27;20012;-82
2023/07/22 03:06:07;;;;;;;9.40;3.70;;;;;;;;;;5110328;28;20024;-82
2023/07/22 03:08:44;;;;;;;9.95;3.80;;;;;;;;;;5111778;27;20373;-81
2023/07/22 03:11:10;;;;;;;11.18;4.50;;;;;;;;;;5127517;28;20082;-81
2023/07/22 03:13:36;;;;;;;11.48;4.55;;;;;;;;;;5127487;28;20440;-81
2023/07/22 03:16:05;;;;;;;9.98;4.22;;;;;;;;;;5111336;28;20026;-81
2023/07/22 03:18:31;;;;;;;12.60;4.78;;;;;;;;;;5127303;28;20114;-81
2023/07/22 03:20:58;;;;;;;10.02;4.07;;;;;;;;;;5127095;28;20111;-81
2023/07/22 03:23:24;;;;;;;13.02;4.70;;;;;;;;;;5127076;28;20016;-82
2023/07/22 03:25:51;;;;;;;12.23;4.22;;;;;;;;;;5127259;28;20023;-81
2023/07/22 03:28:17;;;;;;;10.77;4.43;;;;;;;;;;5127138;28;20023;-82
2023/07/22 03:30:43;;;;;;;10.48;4.38;;;;;;;;;;5126831;28;20038;-81
2023/07/22 03:33:10;;;;;;;8.30;4.53;;;;;;;;;;5127065;28;20486;-81
2023/07/22 03:35:36;;;;;;;10.57;4.38;;;;;;;;;;5127023;28;20016;-81
2023/07/22 03:38:04;;;;;;;10.02;4.88;;;;;;;;;;5126732;28;20383;-81
2023/07/22 03:40:31;;;;;;;9.55;4.93;;;;;;;;;;5126927;28;20016;-81
2023/07/22 03:42:57;;;;;;;8.95;4.70;;;;;;;;;;5126591;28;20471;-81
2023/07/22 03:45:24;;;;;;;10.60;4.70;;;;;;;;;;5111059;28;20483;-82
2023/07/22 03:48:09;;;;;;;11.70;4.57;;;;;;;;;;5126732;28;20023;-81
2023/07/22 03:50:35;;;;;;;13.20;4.68;;;;;;;;;;5126974;28;20055;-81
2023/07/22 03:53:01;;;;;;;12.00;4.57;;;;;;;;;;5126631;28;20032;-81
2023/07/22 03:55:27;;;;;;;7.55;5.00;;;;;;;;;;5126554;28;20115;-81
2023/07/22 03:57:54;;;;;;;11.80;5.03;;;;;;;;;;5126325;28;20110;-81
2023/07/22 04:00:21;;;;;;;12.63;5.20;;;;;;;;;;5126531;28;20030;-81
2023/07/22 04:02:47;;;;;;;13.35;5.32;;;;;;;;;;5126498;28;20046;-82
2023/07/22 04:05:13;;;;;;;12.63;5.47;;;;;;;;;;5110424;28;20016;-81
2023/07/22 04:07:39;;;;;;;10.68;5.25;;;;;;;;;;5126613;28;20384;-81
2023/07/22 04:10:06;;;;;;;12.27;5.13;;;;;;;;;;5126386;28;20363;-81
2023/07/22 04:12:32;;;;;;;15.98;5.68;;;;;;;;;;5126050;28;20505;-81
2023/07/22 04:14:58;;;;;;;10.15;5.43;;;;;;;;;;5126293;28;20068;-81
2023/07/22 04:17:25;;;;;;;9.30;5.15;;;;;;;;;;5126203;28;20395;-81
2023/07/22 04:19:52;;;;;;;11.25;5.72;;;;;;;;;;5097454;28;20037;-81
2023/07/22 04:22:18;;;;;;;15.25;5.40;;;;;;;;;;5112557;28;20031;-81
2023/07/22 04:24:44;;;;;;;10.55;4.95;;;;;;;;;;5096631;28;20058;-81
2023/07/22 04:27:10;;;;;;;12.75;5.68;;;;;;;;;;5096346;28;20024;-81
2023/07/22 04:29:36;;;;;;;13.75;5.25;;;;;;;;;;5096926;28;20027;-81
2023/07/22 04:32:03;;;;;;;10.38;5.60;;;;;;;;;;5112125;28;20016;-81
2023/07/22 04:34:30;;;;;;;14.88;6.13;;;;;;;;;;5112183;28;20026;-81
2023/07/22 04:36:56;;;;;;;10.27;5.18;;;;;;;;;;5112275;28;20028;-81
2023/07/22 04:39:23;;;;;;;11.38;5.32;;;;;;;;;;5111821;28;20032;-81
2023/07/22 04:41:49;;;;;;;15.27;5.78;;;;;;;;;;5112093;28;20027;-81
2023/07/22 04:44:15;;;;;;;10.48;5.22;;;;;;;;;;5112203;28;20459;-81
2023/07/22 04:46:41;;;;;;;12.63;5.43;;;;;;;;;;5111711;28;20035;-81
2023/07/22 04:49:07;;;;;;;12.75;5.82;;;;;;;;;;5096068;28;20431;-81
2023/07/22 04:51:33;;;;;;;10.30;5.45;;;;;;;;;;5111702;28;20053;-81
2023/07/22 04:53:59;;;;;;;9.32;5.22;;;;;;;;;;5111667;28;20031;-83
2023/07/22 04:56:25;;;;;;;11.32;5.72;;;;;;;;;;5112078;28;20047;-81
2023/07/22 04:58:51;;;;;;;11.95;4.78;;;;;;;;;;5111767;28;20144;-81
2023/07/22 05:01:17;;;;;;;15.93;5.43;;;;;;;;;;5111596;28;20020;-81
2023/07/22 05:03:43;;;;;;;13.65;4.78;;;;;;;;;;5095820;28;20020;-81
2023/07/22 05:06:10;;;;;;;16.27;5.80;;;;;;;;;;5111546;28;20027;-81
2023/07/22 05:08:37;;;;;;;13.48;4.88;;;;;;;;;;5095567;28;20392;-81
2023/07/22 05:11:04;;;;;;;13.27;5.72;;;;;;;;;;5111502;28;20016;-81
2023/07/22 05:13:30;;;;;;;15.00;5.50;;;;;;;;;;5111456;28;20020;-81
2023/07/22 05:15:56;;;;;;;11.30;5.90;;;;;;;;;;5111299;28;20016;-81
2023/07/22 05:18:22;;;;;;;12.88;5.20;;;;;;;;;;5111384;28;20032;-81
2023/07/22 05:20:48;;;;;;;14.60;5.18;;;;;;;;;;5111442;28;20024;-81
2023/07/22 05:23:14;;;;;;;8.52;4.63;;;;;;;;;;5110987;28;20380;-81
2023/07/22 05:25:40;;;;;;;9.88;5.13;;;;;;;;;;5111197;28;20028;-81
2023/07/22 05:28:06;;;;;;;11.75;6.57;;;;;;;;;;5111324;28;20028;-81
2023/07/22 05:30:32;;;;;;;9.93;5.45;;;;;;;;;;5110071;28;20059;-82
2023/07/22 05:32:58;;;;;;;21.23;5.65;;;;;;;;;;5111111;28;20016;-82
2023/07/22 05:35:24;;;;;;;10.77;5.30;;;;;;;;;;5110758;28;20024;-82
2023/07/22 05:37:51;;;;;;;14.45;5.30;;;;;;;;;;5111025;28;20376;-82
2023/07/22 05:40:17;;;;;;;9.45;4.35;;;;;;;;;;5095836;28;20020;-82
2023/07/22 05:42:43;;;;;;;10.48;5.05;;;;;;;;;;5110599;28;20032;-82
2023/07/22 05:45:13;;;;;;;8.63;4.75;;;;;;;;;;5110829;28;20114;-82
2023/07/22 05:47:39;;;;;;;10.32;4.63;;;;;;;;;;5095263;28;20028;-82
2023/07/22 05:50:06;;;;;;;8.75;5.15;;;;;;;;;;5110438;28;20028;-82
2023/07/22 05:52:32;;;;;;;12.13;5.85;;;;;;;;;;5094822;28;20028;-83
2023/07/22 05:54:58;;;;;;;13.02;4.65;;;;;;;;;;5110611;28;20162;-82
2023/07/22 05:57:25;;;;;;;11.10;4.80;;;;;;;;;;5110470;28;20161;-82
2023/07/22 05:59:51;;;;;;;12.55;5.53;;;;;;;;;;5094926;28;20027;-82
2023/07/22 06:02:18;;;;;;;13.02;5.93;;;;;;;;;;5111023;28;20110;-82
2023/07/22 06:04:44;;;;;;;11.35;5.68;;;;;;;;;;5134374;27;20032;-81
2023/07/22 06:07:10;;;;;;;10.48;5.65;;;;;;;;;;5119940;28;20074;-83
2023/07/22 06:09:36;;;;;;;14.20;5.25;;;;;;;;;;5116279;28;20525;-83
2023/07/22 06:12:02;;;;;;;13.27;5.18;;;;;;;;;;5111553;28;20024;-83
2023/07/22 06:14:29;;;;;;;13.73;5.80;;;;;;;;;;5094407;28;20053;-82
2023/07/22 06:16:55;;;;;;;11.40;5.30;;;;;;;;;;5110599;28;20077;-82
2023/07/22 06:19:21;;;;;;;15.57;5.53;;;;;;;;;;5110662;28;20468;-83
2023/07/22 06:21:47;;;;;;;12.30;5.97;;;;;;;;;;5111355;28;20027;-83
2023/07/22 06:24:13;;;;;;;14.23;4.80;;;;;;;;;;5111212;28;20028;-82
2023/07/22 06:26:39;;;;;;;10.90;4.88;;;;;;;;;;5111000;28;20024;-82
2023/07/22 06:29:05;;;;;;;13.13;5.10;;;;;;;;;;5094770;28;20032;-83
2023/07/22 06:31:31;;;;;;;13.02;5.38;;;;;;;;;;5103199;28;20033;-80
2023/07/22 06:33:59;;;;;;;8.45;4.80;;;;;;;;;;5082485;28;20020;-81
2023/07/22 06:36:25;;;;;;;10.10;5.28;;;;;;;;;;5106434;28;20017;-82
2023/07/22 06:38:52;;;;;;;13.07;4.78;;;;;;;;;;5093744;28;20044;-82
2023/07/22 06:41:19;;;;;;;15.07;5.03;;;;;;;;;;5093264;28;20016;-82
2023/07/22 06:43:45;;;;;;;14.82;5.80;;;;;;;;;;5094075;28;20021;-83
2023/07/22 06:46:11;;;;;;;10.05;4.90;;;;;;;;;;5092699;28;20024;-82
2023/07/22 06:48:37;;;;;;;11.35;6.13;;;;;;;;;;5094774;28;20028;-82
2023/07/22 06:51:03;;;;;;;12.93;7.43;;;;;;;;;;5096879;28;20033;-80
2023/07/22 06:53:29;;;;;;;13.68;5.22;;;;;;;;;;5089047;28;20032;-80
2023/07/22 06:55:56;;;;;;;10.77;4.55;;;;;;;;;;5090650;28;20538;-80
2023/07/22 06:58:22;;;;;;;9.02;4.85;;;;;;;;;;5093258;28;20055;-79
2023/07/22 07:00:48;;;;;;;13.20;5.75;;;;;;;;;;5092754;28;20027;-80
2023/07/22 07:03:15;;;;;;;9.52;4.00;;;;;;;;;;5093767;28;20016;-80
2023/07/22 07:05:41;;;;;;;11.40;4.47;;;;;;;;;;5092347;28;20028;-80
2023/07/22 07:08:07;;;;;;;11.50;4.47;;;;;;;;;;5095235;28;20098;-80
2023/07/22 07:10:37;;;;;;;8.95;3.88;;;;;;;;;;5091034;28;20016;-80
2023/07/22 07:13:03;;;;;;;8.98;4.03;;;;;;;;;;5093164;28;20418;-79
2023/07/22 07:15:29;;;;;;;10.40;4.45;;;;;;;;;;5093497;28;20024;-80
2023/07/22 07:17:55;;;;;;;12.60;4.18;;;;;;;;;;5091813;28;20476;-80
2023/07/22 07:20:21;;;;;;;9.98;4.10;;;;;;;;;;5092041;28;20016;-81
2023/07/22 07:22:47;;;;;;;8.38;3.75;;;;;;;;;;5092349;28;20016;-81
2023/07/22 07:25:15;;;;;;;9.73;3.00;;;;;;;;;;5092063;28;20020;-82
2023/07/22 07:27:41;;;;;;;10.20;3.47;;;;;;;;;;5102817;28;20077;-80
2023/07/22 07:30:08;;;;;;;10.68;3.78;;;;;;;;;;5084218;28;20024;-82
2023/07/22 07:32:35;;;;;;;9.07;4.05;;;;;;;;;;5091807;28;20028;-83
2023/07/22 07:35:01;;;;;;;7.40;3.13;;;;;;;;;;5091981;28;20024;-80
2023/07/22 07:37:27;;;;;;;7.13;3.28;;;;;;;;;;5091793;28;20024;-82
2023/07/22 07:39:53;;;;;;;10.18;3.33;;;;;;;;;;5084064;28;20475;-82
2023/07/22 07:42:19;;;;;;;9.98;4.40;;;;;;;;;;5085391;28;20467;-80
2023/07/22 07:44:46;;;;;;;8.73;4.75;;;;;;;;;;5088551;28;20470;-80
2023/07/22 07:47:12;;;;;;;8.95;3.53;;;;;;;;;;5088289;28;20043;-83
2023/07/22 07:49:39;;;;;;;10.88;3.35;;;;;;;;;;5088371;28;20070;-83
2023/07/22 07:52:05;;;;;;;9.63;4.95;;;;;;;;;;5088375;28;20025;-80
2023/07/22 07:54:31;;;;;;;9.10;4.28;;;;;;;;;;5092728;28;20043;-83
2023/07/22 07:56:57;;;;;;;9.13;4.00;;;;;;;;;;5092187;28;20029;-83
2023/07/22 07:59:23;;;;;;;8.10;4.15;;;;;;;;;;5089855;28;20016;-83
2023/07/22 08:01:49;;;;;;;11.20;3.55;;;;;;;;;;5096168;28;20019;-84
2023/07/22 08:04:17;;;;;;;10.73;4.20;;;;;;;;;;5095356;28;20020;-84
2023/07/22 08:06:43;;;;;;;21.75;4.40;;;;;;;;;;5095880;28;20052;-83
2023/07/22 08:09:10;;;;;;;8.85;3.47;;;;;;;;;;5097123;28;20020;-83
2023/07/22 08:11:37;;;;;;;9.38;3.67;;;;;;;;;;5097723;28;20024;-83
2023/07/22 08:14:05;;;;;;;7.43;3.83;;;;;;;;;;5097061;28;20028;-83
2023/07/22 08:16:31;;;;;;;12.30;3.20;;;;;;;;;;5099737;28;20047;-83
2023/07/22 08:18:58;;;;;;;8.90;3.38;;;;;;;;;;5101354;28;20109;-83
2023/07/22 08:21:24;;;;;;;12.40;3.80;;;;;;;;;;5097600;28;20431;-83
2023/07/22 08:23:50;;;;;;;9.77;3.88;;;;;;;;;;5095227;28;20023;-83
2023/07/22 08:26:20;;;;;;;8.90;3.38;;;;;;;;;;5098167;28;20402;-84
2023/07/22 08:28:46;;;;;;;7.85;4.45;;;;;;;;;;5096752;28;20024;-82
2023/07/22 08:31:13;;;;;;;8.35;3.67;;;;;;;;;;5096949;28;20063;-83
2023/07/22 08:33:39;;;;;;;7.43;3.15;;;;;;;;;;5096407;28;20024;-83
2023/07/22 08:36:05;;;;;;;7.78;3.03;;;;;;;;;;5096915;28;20024;-84
2023/07/22 08:38:31;;;;;;;8.25;3.85;;;;;;;;;;5096768;28;20115;-81
2023/07/22 08:40:58;;;;;;;8.02;3.40;;;;;;;;;;5098388;28;20028;-85
2023/07/22 08:43:24;;;;;;;7.63;3.67;;;;;;;;;;5096730;28;20043;-85
2023/07/22 08:45:50;;;;;;;10.15;3.90;;;;;;;;;;5097462;28;20058;-84
2023/07/22 08:48:18;;;;;;;9.27;3.30;;;;;;;;;;5095443;28;20119;-85
2023/07/22 08:50:52;;;;;;;8.75;3.53;;;;;;;;;;5095634;28;20379;-85
2023/07/22 08:53:21;;;;;;;8.00;3.20;;;;;;;;;;5095230;28;20016;-85
2023/07/22 08:55:48;;;;;;;9.43;3.33;;;;;;;;;;5095450;28;20052;-83
2023/07/22 08:58:14;;;;;;;9.07;3.85;;;;;;;;;;5095268;28;20092;-84
2023/07/22 09:00:40;;;;;;;7.68;3.35;;;;;;;;;;5095384;28;20062;-84
2023/07/22 09:03:07;;;;;;;8.13;3.10;;;;;;;;;;5104428;28;20026;-84
2023/07/22 09:05:34;;;;;;;8.77;3.85;;;;;;;;;;5104374;28;20141;-86
2023/07/22 09:08:01;;;;;;;7.13;3.15;;;;;;;;;;5112773;28;20044;-84
2023/07/22 09:10:28;;;;;;;8.27;3.75;;;;;;;;;;5095973;28;20044;-84
2023/07/22 09:12:54;;;;;;;7.45;3.83;;;;;;;;;;5094759;28;20111;-84
2023/07/22 09:15:23;;;;;;;7.55;3.45;;;;;;;;;;5112323;28;20016;-86
2023/07/22 09:17:49;;;;;;;6.10;3.83;;;;;;;;;;5096712;28;20016;-85
2023/07/22 09:20:15;;;;;;;10.95;4.50;;;;;;;;;;5111990;28;20039;-87
2023/07/22 09:22:45;;;;;;;7.30;3.55;;;;;;;;;;5096566;28;20026;-85
2023/07/22 09:25:21;;;;;;;10.43;4.05;;;;;;;;;;5112229;28;20028;-85
2023/07/22 09:27:49;;;;;;;9.43;3.60;;;;;;;;;;5112360;28;20028;-84
2023/07/22 09:30:28;;;;;;;9.35;3.60;;;;;;;;;;5111988;28;20024;-84
2023/07/22 09:32:58;;;;;;;7.53;3.83;;;;;;;;;;5111619;28;20051;-82
2023/07/22 09:35:27;;;;;;;8.00;3.55;;;;;;;;;;5111707;28;20025;-84
2023/07/22 09:37:53;;;;;;;10.00;3.92;;;;;;;;;;5111745;28;20028;-83
2023/07/22 09:40:24;;;;;;;9.02;3.30;;;;;;;;;;5111261;28;20226;-83
2023/07/22 09:42:51;;;;;;;12.50;5.22;;;;;;;;;;5111843;28;20024;-83
2023/07/22 09:45:18;;;;;;;11.05;4.55;;;;;;;;;;5110724;28;20046;-82
2023/07/22 09:47:45;;;;;;;7.43;4.40;;;;;;;;;;5112968;28;20040;-83
2023/07/22 09:50:12;;;;;;;10.65;3.83;;;;;;;;;;5111844;28;20353;-83
2023/07/22 09:52:43;;;;;;;9.43;5.00;;;;;;;;;;5111989;28;20063;-85
2023/07/22 09:55:09;;;;;;;12.38;3.67;;;;;;;;;;5095068;28;20031;-82
2023/07/22 09:57:36;;;;;;;11.65;3.53;;;;;;;;;;5110853;28;20035;-82
2023/07/22 10:00:02;;;;;;;10.70;4.28;;;;;;;;;;5111340;28;20032;-83
2023/07/22 10:02:30;;;;;;;8.32;4.18;;;;;;;;;;5093690;28;20031;-84
2023/07/22 10:04:59;;;;;;;10.02;3.95;;;;;;;;;;5091898;28;20076;-84
2023/07/22 10:07:25;;;;;;;9.15;4.63;;;;;;;;;;5101443;28;20055;-84
2023/07/22 10:09:55;;;;;;;9.02;4.30;;;;;;;;;;5084953;28;20094;-84
2023/07/22 10:12:21;;;;;;;10.68;3.97;;;;;;;;;;5093686;28;20105;-84
2023/07/22 10:14:49;;;;;;;11.35;3.97;;;;;;;;;;5110907;28;20028;-84
2023/07/22 10:17:16;;;;;;;8.85;5.28;;;;;;;;;;5093198;28;20028;-83
2023/07/22 10:19:44;;;;;;;7.50;4.20;;;;;;;;;;5092923;28;20111;-82
2023/07/22 10:22:10;;;;;;;7.60;3.72;;;;;;;;;;5094791;28;20423;-84
2023/07/22 10:24:36;;;;;;;8.55;3.65;;;;;;;;;;5093825;28;20380;-83
2023/07/22 10:27:03;;;;;;;8.82;4.25;;;;;;;;;;5093078;28;20051;-84
2023/07/22 10:29:31;;;;;;;9.75;3.92;;;;;;;;;;5094495;28;20032;-84
2023/07/22 10:31:57;;;;;;;9.68;3.75;;;;;;;;;;5093159;28;20047;-84
2023/07/22 10:34:26;;;;;;;8.98;4.85;;;;;;;;;;5093080;28;20448;-81
2023/07/22 10:36:56;;;;;;;11.02;4.20;;;921.90;1945.60;;;;;;5094076;28;20032;-82
2023/07/22 10:39:26;;;;;;;10.75;4.05;;;921.90;1945.60;;;;;;5093829;28;20032;-83
2023/07/22 10:42:01;;;;;;;9.60;4.23;;;922.00;1996.80;;;;;;5092849;28;20101;-83
2023/07/22 10:44:26;;;;;;;7.78;3.58;;;921.70;1945.60;;;;;;5092747;28;20430;-83
2023/07/22 10:46:59;;;;;;;10.95;6.53;;;921.80;1920.00;;;;;;5092937;28;20032;-83
2023/07/22 10:49:51;;;;;;;8.45;3.88;;;921.90;1945.60;;;;;;5092864;28;20024;-82
2023/07/22 10:52:41;;;;;;;7.78;3.30;;;922.10;1894.40;;;;;;5094351;28;20111;-82
2023/07/22 10:55:17;;;;;;;8.90;3.95;;;922.10;1971.20;;;;;;5093310;28;20024;-84
2023/07/22 10:57:52;;;;;;;10.02;3.80;;;922.40;1945.60;;;;;;5092751;28;20472;-82
2023/07/22 11:00:20;;;;;;;9.65;3.95;;;922.50;1920.00;;;;;;5086639;28;20028;-83
2023/07/22 11:03:07;;;;;;;8.55;3.80;;;922.50;1894.40;;;;;;5091675;28;20028;-83
2023/07/22 11:05:50;;;;;;;10.90;4.22;;;922.50;1894.40;;;;;;5092839;28;20028;-84
2023/07/22 11:08:16;;;;;;;8.55;3.40;;;947.20;1920.00;;;;;;5093834;28;20138;-84
2023/07/22 11:10:55;;;;;;;11.05;4.22;;;;;;;;;;5091930;28;20036;-84
2023/07/22 11:13:29;;;;;;;10.18;3.90;;;947.50;1868.80;;;;;;5096838;28;20027;-87
2023/07/22 11:16:02;;;;;;;12.20;5.05;;;922.50;1868.80;;;;;;5109882;28;20035;-86
2023/07/22 11:18:38;;;;;;;9.60;4.45;;;922.50;1894.40;;;;;;5101785;28;20028;-86
2023/07/22 11:21:11;;;;;;;10.73;4.18;;;947.30;1894.40;;;;;;5089007;28;20036;-84
2023/07/22 11:23:36;;;;;;;9.15;3.20;;;947.50;1920.00;;;;;;5099864;28;20053;-84
2023/07/22 11:26:03;;;;;;;9.00;4.38;;;947.70;1868.80;;;;;;5088366;28;20028;-85
2023/07/22 11:28:30;;;;;;;10.80;3.67;;;947.90;1894.40;;;;;;5093487;28;20028;-84
2023/07/22 11:30:58;;;;;;;10.57;4.18;;;;;;;;;;5096478;28;20032;-85
2023/07/22 11:33:24;;;;;;;8.20;3.33;;;947.90;1843.20;;;;;;5096370;28;20463;-85
2023/07/22 11:35:50;;;;;;;8.13;4.15;;;947.50;1894.40;;;;;;5098157;28;20020;-83
2023/07/22 11:38:16;;;;;;;9.30;4.00;;;947.80;1894.40;;;;;;5082036;28;20035;-84
2023/07/22 11:40:42;;;;;;;13.30;5.05;;;948.00;1868.80;;;;;;5096015;28;20090;-85
2023/07/22 11:43:08;;;;;;;9.77;4.03;;;948.10;1843.20;;;;;;5097037;28;20020;-83
2023/07/22 11:45:34;;;;;;;9.95;5.03;;;947.80;1843.20;;;;;;5097156;28;20047;-85
2023/07/22 11:48:00;;;;;;;14.48;4.43;;;948.10;1868.80;;;;;;5103665;28;20051;-87
2023/07/22 11:50:35;;;;;;;8.77;4.00;;;973.00;1920.00;;;;;;5100781;28;20024;-86
2023/07/22 11:53:01;;;;;;;10.60;4.43;;;;;;;;;;5084185;28;20476;-86
2023/07/22 11:55:28;;;;;;;10.10;4.03;;;973.40;1868.80;;;;;;5099982;28;20115;-84
2023/07/22 11:57:54;;;;;;;10.48;4.05;;;;;;;;;;5096793;28;20036;-85
2023/07/22 12:00:21;;;;;;;11.20;3.65;;;;;;;;;;5110732;28;20036;-83
2023/07/22 12:02:47;;;;;;;9.32;3.83;;;;;;;;;;5108308;28;20023;-85
2023/07/22 12:05:21;;;;;;;9.05;4.35;;;;;;;;;;5134122;27;20087;-86
2023/07/22 12:07:47;;;;;;;9.45;4.28;;;;;;;;;;5085184;28;20139;-85
2023/07/22 12:10:13;;;;;;;11.48;4.65;;;;;;;;;;5096030;28;20120;-86
2023/07/22 12:12:47;;;;;;;11.40;4.63;;;;;;;;;;5097491;28;20024;-86
2023/07/22 12:15:17;;;;;;;10.90;4.65;;;;;;;;;;5113051;28;20024;-85
2023/07/22 12:18:02;;;;;;;12.57;4.25;;;;;;;;;;5107067;28;20032;-86
2023/07/22 12:20:29;;;;;;;10.10;4.53;;;;;;;;;;5093371;28;20047;-83
2023/07/22 12:22:56;;;;;;;10.80;4.15;;;;;;;;;;5082324;28;20106;-84
2023/07/22 12:25:23;;;;;;;11.95;4.32;;;;;;;;;;5081135;28;20194;-83
2023/07/22 12:27:49;;;;;;;12.65;4.10;;;;;;;;;;5101674;28;20052;-82
2023/07/22 12:30:16;;;;;;;9.65;4.18;;;;;;;;;;5100703;28;20012;-83
2023/07/22 12:32:43;;;;;;;8.88;4.28;;;;;;;;;;5095167;28;20020;-82
2023/07/22 12:35:09;;;;;;;13.75;4.75;;;;;;;;;;5101874;28;20044;-84
2023/07/22 12:37:35;;;;;;;14.07;4.57;;;;;;;;;;5082963;28;20515;-83
2023/07/22 12:40:04;;;;;;;13.00;6.82;;;;;;;;;;5101174;28;20047;-83
2023/07/22 12:42:30;;;;;;;8.80;4.13;;;;;;;;;;5101069;28;20023;-83
2023/07/22 12:44:57;;;;;;;10.50;4.85;;;;;;;;;;5095173;28;20024;-83
2023/07/22 12:47:23;;;;;;;11.25;4.50;;;;;;;;;;5084430;28;20071;-83
2023/07/22 12:49:49;;;;;;;11.57;6.03;;;;;;;;;;5098030;28;20032;-83
2023/07/22 12:52:15;;;;;;;10.07;5.57;;;;;;;;;;5100111;28;20024;-84
2023/07/22 12:54:42;;;;;;;11.13;4.93;;;;;;;;;;5101533;27;20024;-84
2023/07/22 12:57:08;;;;;;;16.40;5.10;;;;;;;;;;5103883;28;20054;-84
2023/07/22 12:59:34;;;;;;;8.88;5.10;;;;;;;;;;5098909;28;20352;-84
2023/07/22 13:02:00;;;;;;;9.50;3.95;;;;;;;;;;5101677;28;20025;-84
2023/07/22 13:04:26;;;;;;;11.80;4.22;;;;;;;;;;5094184;28;20035;-84
2023/07/22 13:06:53;;;;;;;11.80;4.18;;;;;;;;;;5094382;28;20064;-86
2023/07/22 13:09:19;;;;;;;11.27;3.72;;;;;;;;;;5094820;28;20023;-87
2023/07/22 13:11:45;;;;;;;10.32;4.07;;;;;;;;;;5097513;28;20021;-86
2023/07/22 13:14:12;;;;;;;8.23;3.63;;;;;;;;;;5094784;28;20027;-87
2023/07/22 13:16:38;;;;;;;11.60;3.85;;;;;;;;;;5112012;28;20051;-86
2023/07/22 13:19:04;;;;;;;11.05;4.07;;;;;;;;;;5112354;28;20035;-85
2023/07/22 13:21:30;;;;;;;8.95;4.13;;;;;;;;;;5094917;28;20718;-85
2023/07/22 13:23:56;;;;;;;11.55;4.07;;;;;;;;;;5095162;28;20024;-86
2023/07/22 13:26:23;;;;;;;13.00;3.65;;;;;;;;;;5094875;28;20126;-86
2023/07/22 13:28:49;;;;;;;13.18;4.20;;;;;;;;;;5094737;28;20197;-85
2023/07/22 13:31:15;;;;;;;6.00;3.40;;;;;;;;;;5111196;28;20052;-87
2023/07/22 13:33:41;;;;;;;10.35;3.45;;;;;;;;;;5096306;28;20511;-88
2023/07/22 13:36:09;;;;;;;11.90;3.88;;;;;;;;;;5105722;28;20016;-87
2023/07/22 13:38:35;;;;;;;10.77;4.00;;;;;;;;;;5087272;28;20032;-86
2023/07/22 13:41:01;;;;;;;9.13;4.18;;;;;;;;;;5094867;28;20055;-87
2023/07/22 13:43:28;;;;;;;13.20;4.55;;;;;;;;;;5094468;28;20024;-83
2023/07/22 13:45:54;;;;;;;13.68;4.32;;;;;;;;;;5094021;28;20463;-85
2023/07/22 13:48:20;;;;;;;15.63;4.88;;;;;;;;;;5094397;28;20039;-83
2023/07/22 13:50:46;;;;;;;11.85;4.60;;;;;;;;;;5094676;28;20119;-81
2023/07/22 13:53:12;;;;;;;10.15;4.55;;;;;;;;;;5093854;28;20111;-82
2023/07/22 13:55:38;;;;;;;11.82;5.22;;;;;;;;;;5095000;28;20032;-84
2023/07/22 13:58:05;;;;;;;12.43;5.45;;;;;;;;;;5094761;28;20427;-82
2023/07/22 14:00:31;;;;;;;12.18;5.88;;;;;;;;;;5094097;28;20090;-83
2023/07/22 14:02:57;;;;;;;12.68;5.50;;;;;;;;;;5094767;28;20012;-80